Time;durP1;ratioP1;P1;durP2;ratioP2;P2;SDS_P1;SDS_P2;PMS_P1;PMS_P2;Temp;Humidity;BMP_temperature;BMP_pressure;BME280_temperature;BME280_humidity;BME280_pressure;Samples;Min_cycle;Max_cycle;Signal;HPM_P1;HPM_P2
2022/10/15 00:01:50;;;;;;;9.48;2.53;;;;;;;;;;4995238;28;20049;-22
2022/10/15 00:04:16;;;;;;;10.85;2.72;;;;;;;;;;4994819;28;20073;-23
2022/10/15 00:06:43;;;;;;;9.52;2.55;;;;;;;;;;4994858;28;20481;-24
2022/10/15 00:09:09;;;;;;;11.07;2.72;;;;;;;;;;4997772;28;20041;-24
2022/10/15 00:11:35;;;;;;;4.90;2.22;;;;;;;;;;4998939;28;20034;-24
2022/10/15 00:14:01;;;;;;;12.20;2.50;;;;;;;;;;4999075;28;20085;-25
2022/10/15 00:16:28;;;;;;;8.77;1.98;;;;;;;;;;4999119;28;20030;-28
2022/10/15 00:18:56;;;;;;;15.45;4.13;;;;;;;;;;4998780;28;20029;-24
2022/10/15 00:21:22;;;;;;;9.73;2.58;;;;;;;;;;4999034;28;20366;-23
2022/10/15 00:23:48;;;;;;;9.57;2.58;;;;;;;;;;4998648;28;20026;-24
2022/10/15 00:26:16;;;;;;;12.27;2.08;;;;;;;;;;4998912;28;20407;-23
2022/10/15 00:28:42;;;;;;;9.32;1.83;;;;;;;;;;4998613;28;20099;-23
2022/10/15 00:31:10;;;;;;;9.38;2.35;;;;;;;;;;4998597;28;20448;-22
2022/10/15 00:33:37;;;;;;;4.43;2.60;;;;;;;;;;4998459;28;20058;-23
2022/10/15 00:36:08;;;;;;;14.02;2.47;;;;;;;;;;4998769;28;20446;-23
2022/10/15 00:38:34;;;;;;;8.55;4.13;;;;;;;;;;4998734;28;20038;-23
2022/10/15 00:41:00;;;;;;;10.85;1.85;;;;;;;;;;4998437;28;20120;-23
2022/10/15 00:43:41;;;;;;;7.28;2.58;;;;;;;;;;4998380;28;20030;-23
2022/10/15 00:46:15;;;;;;;8.07;2.35;;;;;;;;;;4998271;28;20467;-23
2022/10/15 00:48:41;;;;;;;9.63;2.50;;;;;;;;;;4998197;28;20133;-23
2022/10/15 00:51:07;;;;;;;14.55;2.85;;;;;;;;;;4998219;28;20030;-23
2022/10/15 00:53:34;;;;;;;3.38;2.22;;;;;;;;;;4998103;28;20030;-24
2022/10/15 00:56:00;;;;;;;10.30;2.45;;;;;;;;;;4998114;28;20101;-23
2022/10/15 00:58:30;;;;;;;9.57;2.38;;;;;;;;;;4998081;28;20455;-24
2022/10/15 01:00:56;;;;;;;5.25;2.10;;;;;;;;;;4998303;28;20085;-23
2022/10/15 01:03:23;;;;;;;6.85;2.97;;;;;;;;;;4997746;28;20172;-25
2022/10/15 01:05:50;;;;;;;5.53;1.83;;;;;;;;;;4997927;28;20539;-23
2022/10/15 01:08:17;;;;;;;5.63;2.20;;;;;;;;;;4997828;28;20026;-26
2022/10/15 01:10:43;;;;;;;7.88;1.83;;;;;;;;;;4998408;28;20026;-27
2022/10/15 01:13:12;;;;;;;8.90;2.17;;;;;;;;;;4997759;28;20038;-22
2022/10/15 01:15:41;;;;;;;5.90;2.33;;;;;;;;;;4998080;28;20407;-24
2022/10/15 01:18:14;;;;;;;8.85;2.15;;;;;;;;;;4997751;28;20038;-22
2022/10/15 01:20:49;;;;;;;6.47;2.55;;;;;;;;;;4997706;28;20073;-24
2022/10/15 01:23:34;;;;;;;12.07;2.78;;;;;;;;;;4997723;28;20022;-24
2022/10/15 01:26:19;;;;;;;6.75;1.92;;;;;;;;;;4997648;28;20456;-24
2022/10/15 01:29:03;;;;;;;8.13;1.92;;;;;;;;;;4997463;28;20034;-23
2022/10/15 01:31:35;;;;;;;6.53;2.00;;;;;;;;;;4997789;28;20030;-24
2022/10/15 01:34:02;;;;;;;9.13;1.98;;;;;;;;;;4997460;28;20058;-23
2022/10/15 01:36:30;;;;;;;4.80;1.73;;;;;;;;;;4997372;28;20034;-25
2022/10/15 01:38:57;;;;;;;4.80;2.15;;;;;;;;;;4997388;28;20113;-23
2022/10/15 01:41:27;;;;;;;7.90;2.97;;;;;;;;;;4997583;28;20101;-28
2022/10/15 01:44:00;;;;;;;4.97;1.73;;;;;;;;;;4997306;28;20117;-23
2022/10/15 01:46:29;;;;;;;10.88;2.45;;;;;;;;;;4997391;28;20035;-22
2022/10/15 01:48:56;;;;;;;3.60;1.70;;;;;;;;;;4997162;28;20018;-25
2022/10/15 01:51:24;;;;;;;7.65;1.90;;;;;;;;;;4997824;28;20050;-22
2022/10/15 01:53:51;;;;;;;3.15;1.92;;;;;;;;;;4996969;28;20034;-23
2022/10/15 01:56:19;;;;;;;7.90;1.80;;;;;;;;;;4997038;28;20360;-22
2022/10/15 01:58:47;;;;;;;9.77;2.00;;;;;;;;;;4997529;28;20045;-23
2022/10/15 02:01:13;;;;;;;8.63;2.15;;;;;;;;;;4997191;28;20458;-23
2022/10/15 02:03:46;;;;;;;9.60;2.60;;;;;;;;;;4996771;28;20073;-23
2022/10/15 02:06:15;;;;;;;5.72;1.77;;;;;;;;;;4996779;28;20111;-23
2022/10/15 02:08:57;;;;;;;12.02;2.50;;;;;;;;;;4997016;28;20031;-24
2022/10/15 02:11:23;;;;;;;11.23;4.07;;;;;;;;;;4997019;28;20026;-22
2022/10/15 02:13:58;;;;;;;7.32;2.05;;;;;;;;;;4996671;28;20022;-24
2022/10/15 02:16:53;;;;;;;5.07;1.77;;;;;;;;;;4996642;28;20044;-23
2022/10/15 02:19:43;;;;;;;8.15;2.15;;;;;;;;;;4976879;28;20101;-23
2022/10/15 02:22:13;;;;;;;5.13;1.83;;;;;;;;;;4996792;28;20038;-23
2022/10/15 02:24:42;;;;;;;5.72;2.05;;;;;;;;;;4997015;28;20033;-23
2022/10/15 02:27:09;;;;;;;7.80;1.90;;;;;;;;;;4996649;28;20048;-23
2022/10/15 02:29:35;;;;;;;8.55;2.03;;;;;;;;;;4996674;28;20027;-25
2022/10/15 02:32:02;;;;;;;9.15;1.65;;;;;;;;;;4995898;28;20431;-23
2022/10/15 02:34:29;;;;;;;8.75;1.88;;;;;;;;;;4996262;28;20018;-23
2022/10/15 02:36:57;;;;;;;8.50;1.92;;;;;;;;;;4996520;28;20026;-24
2022/10/15 02:39:24;;;;;;;4.15;1.40;;;;;;;;;;4996216;28;20031;-24
2022/10/15 02:41:51;;;;;;;7.65;2.60;;;;;;;;;;4996100;28;20034;-23
2022/10/15 02:44:17;;;;;;;5.80;2.28;;;;;;;;;;4996392;28;20038;-25
2022/10/15 02:46:43;;;;;;;3.58;1.70;;;;;;;;;;4996022;28;20034;-23
2022/10/15 02:49:09;;;;;;;3.20;1.73;;;;;;;;;;4996612;28;20045;-22
2022/10/15 02:51:36;;;;;;;5.00;1.60;;;;;;;;;;4996262;28;20081;-22
2022/10/15 02:54:02;;;;;;;3.92;1.58;;;;;;;;;;4996165;28;20042;-22
2022/10/15 02:56:28;;;;;;;4.07;1.65;;;;;;;;;;4995905;28;20045;-25
2022/10/15 02:58:54;;;;;;;3.40;1.45;;;;;;;;;;4996153;28;20037;-22
2022/10/15 03:01:21;;;;;;;5.28;1.60;;;;;;;;;;4996074;28;20026;-28
2022/10/15 03:03:47;;;;;;;6.53;3.03;;;;;;;;;;4995610;28;20439;-24
2022/10/15 03:06:13;;;;;;;3.92;1.45;;;;;;;;;;4995774;28;20439;-24
2022/10/15 03:08:41;;;;;;;5.93;1.70;;;;;;;;;;4995666;28;20359;-24
2022/10/15 03:11:07;;;;;;;4.57;1.65;;;;;;;;;;4996470;28;20375;-23
2022/10/15 03:13:37;;;;;;;8.07;2.45;;;;;;;;;;4978642;28;20022;-24
2022/10/15 03:16:05;;;;;;;9.73;1.80;;;;;;;;;;4995849;28;20053;-24
2022/10/15 03:18:31;;;;;;;6.43;2.40;;;;;;;;;;4995799;28;20030;-24
2022/10/15 03:20:58;;;;;;;5.30;1.88;;;;;;;;;;4995779;28;20352;-23
2022/10/15 03:23:24;;;;;;;7.72;1.75;;;;;;;;;;4995412;28;20038;-24
2022/10/15 03:25:51;;;;;;;6.82;1.98;;;;;;;;;;4995458;28;20149;-23
2022/10/15 03:28:17;;;;;;;4.90;1.50;;;;;;;;;;4995584;28;20359;-23
2022/10/15 03:30:43;;;;;;;5.85;1.38;;;;;;;;;;4995387;28;20052;-23
2022/10/15 03:33:10;;;;;;;5.10;1.63;;;;;;;;;;4995393;28;20109;-25
2022/10/15 03:35:36;;;;;;;4.10;2.40;;;;;;;;;;4996088;28;20022;-22
2022/10/15 03:38:02;;;;;;;4.20;1.90;;;;;;;;;;4995530;28;20044;-23
2022/10/15 03:40:28;;;;;;;9.80;2.13;;;;;;;;;;4995316;28;20026;-24
2022/10/15 03:42:55;;;;;;;4.95;1.70;;;;;;;;;;4995147;28;20034;-23
2022/10/15 03:45:21;;;;;;;2.58;1.45;;;;;;;;;;4995504;28;20054;-25
2022/10/15 03:47:47;;;;;;;4.28;1.30;;;;;;;;;;4995395;28;20117;-24
2022/10/15 03:50:14;;;;;;;6.05;1.60;;;;;;;;;;4995165;28;20018;-23
2022/10/15 03:52:40;;;;;;;3.08;1.60;;;;;;;;;;4995326;28;20089;-22
2022/10/15 03:55:07;;;;;;;3.83;1.33;;;;;;;;;;4995399;28;20363;-26
2022/10/15 03:57:33;;;;;;;4.00;1.85;;;;;;;;;;4995066;28;20034;-23
2022/10/15 03:59:59;;;;;;;3.95;1.40;;;;;;;;;;4995084;28;20494;-23
2022/10/15 04:02:25;;;;;;;4.70;2.25;;;;;;;;;;4994768;28;20022;-26
2022/10/15 04:04:52;;;;;;;7.68;1.92;;;;;;;;;;4995086;28;20038;-24
2022/10/15 04:07:18;;;;;;;8.63;1.58;;;;;;;;;;4995230;28;20030;-22
2022/10/15 04:09:45;;;;;;;7.28;1.85;;;;;;;;;;4995268;28;20026;-23
2022/10/15 04:12:11;;;;;;;5.88;1.80;;;;;;;;;;4994894;28;20093;-23
2022/10/15 04:14:37;;;;;;;8.63;2.95;;;;;;;;;;4995203;28;20105;-33
2022/10/15 04:17:03;;;;;;;5.60;1.75;;;;;;;;;;4995171;28;20419;-25
2022/10/15 04:19:29;;;;;;;8.02;1.65;;;;;;;;;;4995452;28;20065;-23
2022/10/15 04:21:56;;;;;;;9.60;2.05;;;;;;;;;;4994766;28;20103;-25
2022/10/15 04:24:22;;;;;;;2.85;1.30;;;;;;;;;;4994888;28;20045;-24
2022/10/15 04:26:48;;;;;;;3.78;1.88;;;;;;;;;;4994775;28;20034;-23
2022/10/15 04:29:15;;;;;;;2.65;1.50;;;;;;;;;;4995064;28;20371;-22
2022/10/15 04:31:41;;;;;;;2.33;1.30;;;;;;;;;;4994772;28;20030;-23
2022/10/15 04:34:07;;;;;;;1.85;1.50;;;;;;;;;;4994719;28;20062;-24
2022/10/15 04:36:33;;;;;;;5.70;1.88;;;;;;;;;;4994699;28;20027;-24
2022/10/15 04:39:00;;;;;;;5.07;1.80;;;;;;;;;;4994805;28;20459;-24
2022/10/15 04:41:26;;;;;;;3.83;2.28;;;;;;;;;;4994762;28;20367;-23
2022/10/15 04:43:52;;;;;;;3.88;1.35;;;;;;;;;;4994604;28;20031;-22
2022/10/15 04:46:21;;;;;;;2.25;1.48;;;;;;;;;;4995247;28;20317;-23
2022/10/15 04:48:47;;;;;;;3.70;1.98;;;;;;;;;;4994847;28;20038;-23
2022/10/15 04:51:17;;;;;;;5.75;1.77;;;;;;;;;;4994896;28;20137;-26
2022/10/15 04:53:44;;;;;;;3.08;1.70;;;;;;;;;;4995221;28;20046;-24
2022/10/15 04:56:14;;;;;;;3.80;1.45;;;;;;;;;;4998502;28;20027;-24
2022/10/15 04:58:40;;;;;;;3.72;1.67;;;;;;;;;;4999200;28;20027;-23
2022/10/15 05:01:07;;;;;;;4.40;1.90;;;;;;;;;;4998387;28;20034;-24
2022/10/15 05:03:34;;;;;;;7.90;2.03;;;;;;;;;;4997709;28;20062;-24
2022/10/15 05:06:05;;;;;;;4.68;1.58;;;;;;;;;;4997967;28;20030;-24
2022/10/15 05:08:33;;;;;;;3.47;1.27;;;;;;;;;;4998203;28;20405;-24
2022/10/15 05:11:06;;;;;;;3.10;1.55;;;;;;;;;;4997911;28;20269;-25
2022/10/15 05:13:32;;;;;;;5.95;3.15;;;;;;;;;;4997883;28;20022;-26
2022/10/15 05:16:09;;;;;;;4.25;1.58;;;;;;;;;;4997832;28;20049;-23
2022/10/15 05:18:35;;;;;;;2.20;1.70;;;;;;;;;;4998097;28;20054;-23
2022/10/15 05:21:01;;;;;;;3.22;2.38;;;;;;;;;;4997678;28;20104;-24
2022/10/15 05:23:28;;;;;;;6.03;2.15;;;;;;;;;;4997633;28;20026;-26
2022/10/15 05:25:54;;;;;;;4.43;1.88;;;;;;;;;;4997668;28;20038;-24
2022/10/15 05:28:20;;;;;;;3.80;1.75;;;;;;;;;;4997468;28;20459;-26
2022/10/15 05:30:46;;;;;;;4.50;1.70;;;;;;;;;;4997798;28;20050;-24
2022/10/15 05:33:12;;;;;;;3.85;2.03;;;;;;;;;;4997640;28;20037;-23
2022/10/15 05:35:38;;;;;;;7.40;1.95;;;;;;;;;;4997669;28;20340;-23
2022/10/15 05:38:04;;;;;;;6.68;1.65;;;;;;;;;;4997690;28;20066;-24
2022/10/15 05:40:30;;;;;;;3.83;1.88;;;;;;;;;;4997645;28;20026;-26
2022/10/15 05:42:57;;;;;;;5.53;2.30;;;;;;;;;;4997211;28;20022;-25
2022/10/15 05:45:23;;;;;;;4.97;2.10;;;;;;;;;;4997219;28;20034;-23
2022/10/15 05:47:53;;;;;;;6.53;2.13;;;;;;;;;;4997395;28;20029;-26
2022/10/15 05:50:19;;;;;;;1.92;1.40;;;;;;;;;;4997538;28;20033;-23
2022/10/15 05:52:45;;;;;;;3.50;1.60;;;;;;;;;;4997022;28;20058;-23
2022/10/15 05:55:11;;;;;;;6.80;2.00;;;;;;;;;;4997093;28;20045;-27
2022/10/15 05:57:37;;;;;;;5.30;1.90;;;;;;;;;;4997257;28;20049;-24
2022/10/15 06:00:04;;;;;;;2.72;1.88;;;;;;;;;;4996944;28;20039;-24
2022/10/15 06:02:30;;;;;;;2.78;1.30;;;;;;;;;;4997066;28;20026;-26
2022/10/15 06:04:56;;;;;;;4.72;1.90;;;;;;;;;;4996261;28;20064;-24
2022/10/15 06:07:23;;;;;;;2.55;2.28;;;;;;;;;;4996324;28;20027;-24
2022/10/15 06:09:49;;;;;;;3.55;1.92;;;;;;;;;;4997110;28;20042;-24
2022/10/15 06:12:15;;;;;;;3.97;2.15;;;;;;;;;;4996915;28;20114;-23
2022/10/15 06:14:41;;;;;;;7.18;2.17;;;;;;;;;;4996914;28;20019;-23
2022/10/15 06:17:07;;;;;;;6.30;1.95;;;;;;;;;;4996931;28;20026;-24
2022/10/15 06:19:33;;;;;;;3.95;1.40;;;;;;;;;;4996584;28;20022;-23
2022/10/15 06:21:59;;;;;;;5.15;1.60;;;;;;;;;;4996526;28;20042;-25
2022/10/15 06:24:25;;;;;;;3.83;1.70;;;;;;;;;;4996725;28;20034;-27
2022/10/15 06:26:52;;;;;;;4.10;1.75;;;;;;;;;;4996635;28;20045;-25
2022/10/15 06:29:18;;;;;;;2.63;1.33;;;;;;;;;;4996404;28;20080;-23
2022/10/15 06:31:44;;;;;;;6.88;1.67;;;;;;;;;;4979244;28;20459;-23
2022/10/15 06:34:10;;;;;;;6.00;1.90;;;;;;;;;;4996328;28;20520;-25
2022/10/15 06:36:37;;;;;;;8.73;2.25;;;;;;;;;;4996583;28;20069;-23
2022/10/15 06:39:03;;;;;;;7.93;2.22;;;;;;;;;;4996311;28;20018;-25
2022/10/15 06:41:29;;;;;;;3.60;2.50;;;;;;;;;;4996730;28;20034;-26
2022/10/15 06:43:55;;;;;;;4.38;1.80;;;;;;;;;;4996140;28;20466;-23
2022/10/15 06:46:21;;;;;;;4.47;2.50;;;;;;;;;;4996382;28;20059;-25
2022/10/15 06:48:48;;;;;;;4.95;2.05;;;;;;;;;;4996027;28;20030;-24
2022/10/15 06:51:15;;;;;;;9.48;1.83;;;;;;;;;;4995930;28;20030;-22
2022/10/15 06:53:42;;;;;;;7.18;1.70;;;;;;;;;;4996236;28;20097;-23
2022/10/15 06:56:08;;;;;;;3.92;1.98;;;;;;;;;;4996164;28;20411;-23
2022/10/15 06:58:35;;;;;;;3.78;1.58;;;;;;;;;;4996150;28;20026;-23
2022/10/15 07:01:05;;;;;;;8.40;1.90;;;;;;;;;;4995870;28;20101;-23
2022/10/15 07:03:31;;;;;;;6.68;1.92;;;;;;;;;;4995599;28;20053;-25
2022/10/15 07:06:02;;;;;;;5.63;2.17;;;;;;;;;;4995986;28;20042;-24
2022/10/15 07:08:28;;;;;;;9.20;2.65;;;;;;;;;;4995953;28;20135;-25
2022/10/15 07:10:54;;;;;;;11.80;1.95;;;;;;;;;;4995631;28;20045;-23
2022/10/15 07:13:21;;;;;;;14.98;2.78;;;;;;;;;;4995853;28;20019;-24
2022/10/15 07:15:52;;;;;;;6.32;1.88;;;;;;;;;;4995864;28;20030;-24
2022/10/15 07:18:19;;;;;;;12.07;2.78;;;;;;;;;;4995603;28;20306;-23
2022/10/15 07:20:45;;;;;;;6.05;1.67;;;;;;;;;;4995491;28;20034;-24
2022/10/15 07:23:11;;;;;;;8.23;1.80;;;;;;;;;;4995267;28;20030;-23
2022/10/15 07:25:38;;;;;;;6.22;2.00;;;;;;;;;;4995448;28;20026;-23
2022/10/15 07:28:04;;;;;;;9.25;2.10;;;;;;;;;;4995242;28;20054;-23
2022/10/15 07:30:30;;;;;;;17.25;2.42;;;;;;;;;;4995644;28;20026;-23
2022/10/15 07:32:57;;;;;;;11.95;2.08;;;;;;;;;;4995534;28;20023;-24
2022/10/15 07:35:24;;;;;;;5.53;2.97;;;;;;;;;;4995189;28;20026;-24
2022/10/15 07:37:50;;;;;;;10.57;2.67;;;;;;;;;;4995273;28;20069;-23
2022/10/15 07:40:17;;;;;;;11.75;3.10;;;;;;;;;;4995269;28;20408;-23
2022/10/15 07:42:43;;;;;;;7.30;3.17;;;;;;;;;;4995419;28;20054;-23
2022/10/15 07:45:10;;;;;;;24.27;2.70;;;;;;;;;;4995127;28;20042;-24
2022/10/15 07:47:36;;;;;;;12.38;2.20;;;;;;;;;;4995763;28;20100;-24
2022/10/15 07:50:02;;;;;;;16.75;2.40;;;;;;;;;;4995116;28;20451;-23
2022/10/15 07:52:28;;;;;;;15.90;2.40;;;;;;;;;;4995076;28;20031;-23
2022/10/15 07:54:54;;;;;;;12.32;2.25;;;;;;;;;;4995607;28;20046;-23
2022/10/15 07:57:20;;;;;;;12.43;2.83;;;;;;;;;;4995292;28;20034;-27
2022/10/15 07:59:47;;;;;;;9.30;2.20;;;;;;;;;;4995036;28;20034;-23
2022/10/15 08:02:16;;;;;;;17.48;3.95;;;;;;;;;;4994866;28;20034;-23
2022/10/15 08:04:42;;;;;;;11.85;2.85;;;;;;;;;;4994818;28;20130;-23
2022/10/15 08:07:08;;;;;;;9.10;2.20;;;;;;;;;;4995723;28;20030;-27
2022/10/15 08:09:35;;;;;;;11.43;2.53;;;;;;;;;;4995215;28;20031;-23
2022/10/15 08:12:01;;;;;;;19.90;2.47;;;;;;;;;;4994797;28;20029;-23
2022/10/15 08:14:27;;;;;;;11.52;2.42;;;;;;;;;;4977769;28;20042;-23
2022/10/15 08:16:53;;;;;;;13.00;4.00;;;;;;;;;;4994941;28;20022;-22
2022/10/15 08:19:19;;;;;;;15.77;2.83;;;;;;;;;;4995178;28;20031;-23
2022/10/15 08:21:46;;;;;;;9.23;2.67;;;;;;;;;;4994769;28;20022;-24
2022/10/15 08:24:12;;;;;;;14.35;3.22;;;;;;;;;;4995132;28;20388;-24
2022/10/15 08:26:38;;;;;;;18.50;2.92;;;;;;;;;;4995066;28;20026;-23
2022/10/15 08:29:04;;;;;;;17.35;3.00;;;;;;;;;;4995851;28;20022;-23
2022/10/15 08:31:30;;;;;;;12.40;2.10;;;;;;;;;;4998644;28;20031;-24
2022/10/15 08:33:59;;;;;;;18.58;2.83;;;;;;;;;;4998787;28;20466;-23
2022/10/15 08:36:25;;;;;;;15.52;3.28;;;;;;;;;;4998713;28;20030;-23
2022/10/15 08:38:51;;;;;;;30.40;3.28;;;;;;;;;;4998479;28;20042;-23
2022/10/15 08:41:21;;;;;;;15.27;3.60;;;;;;;;;;4998697;28;20041;-27
2022/10/15 08:43:48;;;;;;;9.55;3.35;;;;;;;;;;4998252;28;20093;-23
2022/10/15 08:46:25;;;;;;;16.05;2.97;;;;;;;;;;4998249;28;20037;-24
2022/10/15 08:48:53;;;;;;;9.85;2.72;;;;;;;;;;4998307;28;20463;-23
2022/10/15 08:51:21;;;;;;;7.60;3.13;;;;;;;;;;4998277;28;20029;-23
2022/10/15 08:53:49;;;;;;;13.98;3.67;;;;;;;;;;4998161;28;20033;-23
2022/10/15 08:56:27;;;;;;;17.25;3.38;;;;;;;;;;4998216;28;20030;-23
2022/10/15 08:59:04;;;;;;;10.18;3.08;;;;;;;;;;4998490;28;20027;-23
2022/10/15 09:01:33;;;;;;;12.45;2.80;;;;;;;;;;4998419;28;20100;-23
2022/10/15 09:04:08;;;;;;;9.57;2.80;;;;;;;;;;4997777;28;20097;-23
2022/10/15 09:06:36;;;;;;;14.98;3.40;;;;;;;;;;4998590;28;20038;-23
2022/10/15 09:09:08;;;;;;;17.17;2.75;;;;;;;;;;4998246;28;20038;-25
2022/10/15 09:11:34;;;;;;;10.63;2.38;;;;;;;;;;4997937;28;20026;-23
2022/10/15 09:14:01;;;;;;;10.30;2.60;;;;;;;;;;4997842;28;20033;-24
2022/10/15 09:16:30;;;;;;;17.27;2.75;;;;;;;;;;4998124;28;20101;-23
2022/10/15 09:18:58;;;;;;;28.65;3.53;;;;;;;;;;4997809;28;20038;-23
2022/10/15 09:21:27;;;;;;;15.60;3.50;;;;;;;;;;4997704;28;20058;-23
2022/10/15 09:23:58;;;;;;;14.85;3.00;;;;;;;;;;4997674;28;20034;-24
2022/10/15 09:26:30;;;;;;;14.30;3.50;;;;;;;;;;4998514;28;20113;-23
2022/10/15 09:29:07;;;;;;;20.25;3.28;;;;;;;;;;4997566;28;20027;-23
2022/10/15 09:31:35;;;;;;;13.20;2.70;;;;;;;;;;4997885;28;20103;-24
2022/10/15 09:34:14;;;;;;;18.63;3.08;;;;;;;;;;4997419;28;20109;-23
2022/10/15 09:36:47;;;;;;;14.02;2.97;;;;;;;;;;4997472;28;20061;-23
2022/10/15 09:39:19;;;;;;;15.68;3.30;;;;;;;;;;4997361;28;20490;-23
2022/10/15 09:41:58;;;;;;;19.95;3.15;;;;;;;;;;4997134;28;20096;-23
2022/10/15 09:44:25;;;;;;;15.52;3.05;;;;;;;;;;4997351;28;20132;-24
2022/10/15 09:46:51;;;;;;;9.48;2.70;;;;;;;;;;4997476;28;20026;-23
2022/10/15 09:49:20;;;;;;;12.63;2.55;;;;;;;;;;4997402;28;20030;-23
2022/10/15 09:51:53;;;;;;;17.27;2.88;;;;;;;;;;4997042;28;20031;-23
2022/10/15 09:54:28;;;;;;;17.02;3.22;;;;;;;;;;4997408;28;20027;-23
2022/10/15 09:56:56;;;;;;;24.52;4.07;;;;;;;;;;4997365;28;20101;-25
2022/10/15 09:59:23;;;;;;;17.33;3.50;;;;;;;;;;4997046;28;20029;-23
2022/10/15 10:01:57;;;;;;;17.90;2.70;;;;;;;;;;4996857;28;20085;-23
2022/10/15 10:04:25;;;;;;;9.88;3.05;;;;;;;;;;4996735;28;20046;-24
2022/10/15 10:06:53;;;;;;;19.50;2.67;;;;;;;;;;4996788;28;20026;-27
2022/10/15 10:09:21;;;;;;;21.65;3.42;;;;;;;;;;4996777;28;20463;-23
2022/10/15 10:11:51;;;;;;;28.98;3.58;;;;;;;;;;4996719;28;20030;-26
2022/10/15 10:14:47;;;;;;;28.15;3.33;;;;;;;;;;4996835;28;20089;-23
2022/10/15 10:17:20;;;;;;;24.80;3.67;;;;;;;;;;4976904;28;20426;-24
2022/10/15 10:20:04;;;;;;;32.03;3.00;;;;;;;;;;4996684;28;20043;-22
2022/10/15 10:22:30;;;;;;;25.83;3.35;;;;;;;;;;4996535;28;20022;-23
2022/10/15 10:24:56;;;;;;;20.02;3.42;;;;;;;;;;4996825;28;20092;-23
2022/10/15 10:27:28;;;;;;;33.55;4.85;;;;;;;;;;4996716;28;20030;-23
2022/10/15 10:29:57;;;;;;;25.23;3.28;;;;;;;;;;4996729;28;20026;-23
2022/10/15 10:32:26;;;;;;;33.58;3.60;;;;;;;;;;4996336;28;20026;-23
2022/10/15 10:34:53;;;;;;;22.60;5.47;;;;;;;;;;4996693;28;20026;-24
2022/10/15 10:37:19;;;;;;;20.98;3.90;;;;;;;;;;4996338;28;20460;-26
2022/10/15 10:39:51;;;;;;;19.33;4.05;;;;;;;;;;4996217;28;20033;-28
2022/10/15 10:42:18;;;;;;;28.48;3.35;;;;;;;;;;4996170;28;20035;-24
2022/10/15 10:44:45;;;;;;;25.73;3.78;;;;;;;;;;4996392;28;20367;-23
2022/10/15 10:47:17;;;;;;;18.77;3.95;;;;;;;;;;4996067;28;20034;-24
2022/10/15 10:49:46;;;;;;;23.02;4.47;;;;;;;;;;4996354;28;20030;-23
2022/10/15 10:52:20;;;;;;;27.88;5.43;;;;;;;;;;4995665;28;20061;-23
2022/10/15 10:54:48;;;;;;;23.50;3.45;;;;;;;;;;4996032;28;20105;-23
2022/10/15 10:57:18;;;;;;;24.90;4.20;;;;;;;;;;4995903;28;20034;-23
2022/10/15 10:59:50;;;;;;;17.80;3.15;;;;;;;;;;4996238;28;20078;-24
2022/10/15 11:02:16;;;;;;;29.92;5.30;;;;;;;;;;4996101;28;20364;-23
2022/10/15 11:04:42;;;;;;;29.23;3.85;;;;;;;;;;4995719;28;20054;-23
2022/10/15 11:07:08;;;;;;;19.73;3.95;;;;;;;;;;4995745;28;20116;-27
2022/10/15 11:09:53;;;;;;;36.08;4.65;;;;;;;;;;4995740;28;20093;-23
2022/10/15 11:12:32;;;;;;;28.42;3.83;;;;;;;;;;4995664;28;20026;-25
2022/10/15 11:15:01;;;;;;;16.52;4.30;;;;;;;;;;4995645;28;20018;-23
2022/10/15 11:17:46;;;;;;;22.92;4.47;;;;;;;;;;4978506;28;20038;-26
2022/10/15 11:20:27;;;;;;;9.05;2.30;;;;;;;;;;4995592;28;20038;-25
2022/10/15 11:23:17;;;;;;;12.60;2.40;;;;;;;;;;4995763;28;20411;-24
2022/10/15 11:26:06;;;;;;;15.48;2.92;;;;;;;;;;4982345;28;20094;-23
2022/10/15 11:28:41;;;;;;;12.77;2.65;;;;;;;;;;4994841;28;20040;-23
2022/10/15 11:31:19;;;;;;;14.93;3.40;;;;;;;;;;4995382;28;20027;-24
2022/10/15 11:33:48;;;;;;;23.77;3.17;;;;;;;;;;4995297;28;20514;-25
2022/10/15 11:36:14;;;;;;;14.70;3.35;;;;;;;;;;4996370;28;20045;-25
2022/10/15 11:39:13;;;;;;;17.10;3.35;;;;;;;;;;4995317;28;20026;-27
2022/10/15 11:41:44;;;;;;;19.15;2.65;;;;;;;;;;4942594;28;20380;-24
2022/10/15 11:44:19;;;;;;;17.20;2.75;;;;;;;;;;4995273;28;20060;-24
2022/10/15 11:46:49;;;;;;;23.88;3.60;;;;;;;;;;4995141;28;20117;-24
2022/10/15 11:49:33;;;;;;;14.20;3.80;;;;;;;;;;4995471;28;20033;-23
2022/10/15 11:52:12;;;;;;;18.92;3.33;;;;;;;;;;4995373;28;20034;-23
2022/10/15 11:54:39;;;;;;;17.83;2.97;;;;;;;;;;4995138;28;20109;-24
2022/10/15 11:57:08;;;;;;;16.20;3.50;;;;;;;;;;4995136;28;20034;-23
2022/10/15 11:59:40;;;;;;;19.65;3.45;;;;;;;;;;4995108;28;20063;-24
2022/10/15 12:02:14;;;;;;;10.95;2.83;;;;;;;;;;4995347;28;20031;-28
2022/10/15 12:04:43;;;;;;;12.20;3.78;;;;;;;;;;4996932;28;20107;-25
2022/10/15 12:07:13;;;;;;;14.93;2.97;;;;;;;;;;4999337;28;20109;-31
2022/10/15 12:09:41;;;;;;;28.60;4.15;;;;;;;;;;4999412;28;20022;-23
2022/10/15 12:12:30;;;;;;;24.08;3.10;;;;;;;;;;4998952;28;20038;-23
2022/10/15 12:15:15;;;;;;;19.75;3.22;;;;;;;;;;4998986;28;20050;-23
2022/10/15 12:17:41;;;;;;;16.08;3.03;;;;;;;;;;4998945;28;20034;-28
2022/10/15 12:20:14;;;;;;;17.40;3.08;;;;;;;;;;4998827;28;20092;-23
2022/10/15 12:22:53;;;;;;;16.83;3.20;;;;;;;;;;4998797;28;20371;-23
2022/10/15 12:25:35;;;;;;;22.75;4.97;;;;;;;;;;4998817;28;20074;-24
2022/10/15 12:28:00;;;;;;;;;;;;;;;;;;4999114;28;20030;-23
2022/10/15 12:30:28;;;;;;;11.73;2.75;;;;;;;;;;4999004;28;20326;-23
2022/10/15 12:32:55;;;;;;;11.95;3.30;;;;;;;;;;4998527;28;20023;-24
2022/10/15 12:35:23;;;;;;;22.63;3.67;;;;;;;;;;4998580;28;20106;-25
2022/10/15 12:37:49;;;;;;;15.90;2.83;;;;;;;;;;4998542;28;20034;-24
2022/10/15 12:40:25;;;;;;;17.48;3.17;;;;;;;;;;4998518;28;20109;-26
2022/10/15 12:42:53;;;;;;;6.95;3.25;;;;;;;;;;4998420;28;20050;-23
2022/10/15 12:45:23;;;;;;;14.93;3.00;;;;;;;;;;4998676;28;20041;-23
2022/10/15 12:47:53;;;;;;;12.50;4.07;;;;;;;;;;4998337;28;20031;-22
2022/10/15 12:50:20;;;;;;;22.17;3.65;;;;;;;;;;4998384;28;20022;-24
2022/10/15 12:52:49;;;;;;;15.52;3.47;;;;;;;;;;4998520;28;20432;-29
2022/10/15 12:55:20;;;;;;;14.07;3.17;;;;;;;;;;4998530;28;20027;-23
2022/10/15 12:57:46;;;;;;;16.98;3.47;;;;;;;;;;4998188;28;20117;-24
2022/10/15 13:00:27;;;;;;;12.50;4.22;;;;;;;;;;4998205;28;20467;-22
2022/10/15 13:02:53;;;;;;;;;;;;;;;;;;4998243;28;20502;-24
2022/10/15 13:05:30;;;;;;;16.17;2.72;;;;;;;;;;4998425;28;19910;-25
2022/10/15 13:07:57;;;;;;;14.18;3.38;;;;;;;;;;4980743;28;20031;-24
2022/10/15 13:10:35;;;;;;;11.18;3.25;;;;;;;;;;4997981;28;20038;-24
2022/10/15 13:13:03;;;;;;;10.38;3.50;;;;;;;;;;4997882;28;20486;-22
2022/10/15 13:15:30;;;;;;;14.13;3.20;;;;;;;;;;4997625;28;20041;-26
2022/10/15 13:17:58;;;;;;;12.07;2.65;;;;;;;;;;4997857;28;20034;-25
2022/10/15 13:20:33;;;;;;;11.30;3.05;;;;;;;;;;4997783;28;20474;-24
2022/10/15 13:23:20;;;;;;;7.20;2.55;;;;;;;;;;4997683;28;20034;-23
2022/10/15 13:25:46;;;;;;;13.18;4.20;;;;;;;;;;4997653;28;20468;-23
2022/10/15 13:28:29;;;;;;;16.63;3.08;;;;;;;;;;4997580;28;20040;-25
2022/10/15 13:30:55;;;;;;;13.88;3.67;;;;;;;;;;4997868;28;20019;-23
2022/10/15 13:33:22;;;;;;;13.05;2.50;;;;;;;;;;4998288;28;20049;-25
2022/10/15 13:35:48;;;;;;;10.88;2.42;;;;;;;;;;4997538;28;20089;-25
2022/10/15 13:38:24;;;;;;;12.82;2.55;;;;;;;;;;4997471;28;20037;-23
2022/10/15 13:40:51;;;;;;;12.77;2.47;;;;;;;;;;4997434;28;20093;-23
2022/10/15 13:43:22;;;;;;;11.30;2.70;;;;;;;;;;4997344;28;20030;-23
2022/10/15 13:45:48;;;;;;;9.30;2.47;;;;;;;;;;4997427;28;20356;-22
2022/10/15 13:48:22;;;;;;;17.35;2.78;;;;;;;;;;4997181;28;20041;-23
2022/10/15 13:50:59;;;;;;;9.07;3.10;;;;;;;;;;4997220;28;20172;-24
2022/10/15 13:53:35;;;;;;;5.88;2.10;;;;;;;;;;4997193;28;20092;-26
2022/10/15 13:56:19;;;;;;;10.52;2.25;;;;;;;;;;4997374;28;20026;-23
2022/10/15 13:58:46;;;;;;;10.95;2.55;;;;;;;;;;4997164;28;20417;-23
2022/10/15 14:01:38;;;;;;;7.63;2.30;;;;;;;;;;4997082;28;20038;-26
2022/10/15 14:04:14;;;;;;;10.82;3.05;;;;;;;;;;4992535;28;20070;-22
2022/10/15 14:06:42;;;;;;;9.00;3.08;;;;;;;;;;4997246;28;20114;-23
2022/10/15 14:09:17;;;;;;;11.27;2.65;;;;;;;;;;4997067;28;20474;-23
2022/10/15 14:11:43;;;;;;;13.05;3.25;;;;;;;;;;4997194;28;20029;-25
2022/10/15 14:14:29;;;;;;;8.57;2.40;;;;;;;;;;4996998;28;20407;-23
2022/10/15 14:16:56;;;;;;;11.05;2.85;;;;;;;;;;4997033;28;20402;-23
2022/10/15 14:19:28;;;;;;;10.25;2.92;;;;;;;;;;4997278;28;20026;-26
2022/10/15 14:21:54;;;;;;;7.97;2.83;;;;;;;;;;4997356;28;20034;-24
2022/10/15 14:24:22;;;;;;;8.43;2.42;;;;;;;;;;4996906;28;20049;-24
2022/10/15 14:26:49;;;;;;;3.83;2.13;;;;;;;;;;4995926;28;20046;-22
2022/10/15 14:29:21;;;;;;;13.00;2.55;;;;;;;;;;4996800;28;20056;-24
2022/10/15 14:31:48;;;;;;;8.43;2.83;;;;;;;;;;4996420;28;20107;-22
2022/10/15 14:34:32;;;;;;;6.55;2.83;;;;;;;;;;4996671;28;20022;-24
2022/10/15 14:36:59;;;;;;;6.88;2.47;;;;;;;;;;4996644;28;20038;-25
2022/10/15 14:39:35;;;;;;;6.57;2.85;;;;;;;;;;4996366;28;20466;-22
2022/10/15 14:42:03;;;;;;;7.25;2.45;;;;;;;;;;4996454;28;20081;-23
2022/10/15 14:44:49;;;;;;;7.95;2.30;;;;;;;;;;4996248;28;20038;-24
2022/10/15 14:47:19;;;;;;;6.15;2.70;;;;;;;;;;4996133;28;20095;-23
2022/10/15 14:49:45;;;;;;;7.40;2.08;;;;;;;;;;4996381;28;20371;-23
2022/10/15 14:52:16;;;;;;;8.48;2.25;;;;;;;;;;4996060;28;20451;-23